Time;durP1;ratioP1;P1;durP2;ratioP2;P2;SDS_P1;SDS_P2;PMS_P1;PMS_P2;Temp;Humidity;BMP_temperature;BMP_pressure;BME280_temperature;BME280_humidity;BME280_pressure;Samples;Min_cycle;Max_cycle;Signal;HPM_P1;HPM_P2
2022/07/02 00:01:04;;;;;;;10.78;3.52;;;;;;;18.05;100.00;100164.33;1670288;85;21120;-79
2022/07/02 00:03:36;;;;;;;6.83;3.30;;;;;;;18.02;100.00;100163.38;1658973;86;21010;-80
2022/07/02 00:06:05;;;;;;;8.73;3.52;;;;;;;17.97;100.00;100164.56;1670434;86;21700;-81
2022/07/02 00:08:33;;;;;;;8.60;3.50;;;;;;;17.90;100.00;100167.34;1670088;86;21109;-81
2022/07/02 00:11:02;;;;;;;9.60;3.60;;;;;;;17.85;100.00;100168.48;1670365;85;21018;-81
2022/07/02 00:13:29;;;;;;;9.35;3.62;;;;;;;17.79;100.00;100167.96;1669933;86;21515;-81
2022/07/02 00:15:57;;;;;;;9.85;4.10;;;;;;;17.74;100.00;100165.89;1670068;84;21046;-81
2022/07/02 00:18:23;;;;;;;8.48;3.70;;;;;;;17.72;100.00;100171.25;1670212;86;21077;-80
2022/07/02 00:20:50;;;;;;;8.33;3.98;;;;;;;17.68;100.00;100172.20;1670454;86;21548;-79
2022/07/02 00:23:17;;;;;;;6.35;3.83;;;;;;;17.65;100.00;100168.52;1670057;85;21108;-81
2022/07/02 00:25:50;;;;;;;7.45;3.70;;;;;;;17.61;100.00;100168.11;1670142;85;21072;-80
2022/07/02 00:28:17;;;;;;;10.43;4.47;;;;;;;17.57;100.00;100170.97;1635815;87;21123;-81
2022/07/02 00:30:47;;;;;;;9.00;4.00;;;;;;;17.53;100.00;100174.34;1635085;88;21049;-79
2022/07/02 00:33:14;;;;;;;7.08;3.70;;;;;;;17.49;100.00;100177.19;1635337;86;21073;-81
2022/07/02 00:35:41;;;;;;;12.45;4.58;;;;;;;17.43;100.00;100179.72;1635249;88;21584;-82
2022/07/02 00:38:09;;;;;;;12.35;3.83;;;;;;;17.39;100.00;100181.75;1635749;88;21058;-82
2022/07/02 00:40:35;;;;;;;13.10;4.70;;;;;;;17.35;100.00;100185.93;1635573;88;21050;-83
2022/07/02 00:43:02;;;;;;;11.83;4.30;;;;;;;17.30;100.00;100185.22;1635529;87;21117;-81
2022/07/02 00:45:30;;;;;;;11.20;4.22;;;;;;;17.25;100.00;100177.64;1635346;88;21568;-83
2022/07/02 00:47:57;;;;;;;9.27;4.67;;;;;;;17.23;100.00;100183.85;1635526;87;21109;-81
2022/07/02 00:50:25;;;;;;;9.68;4.70;;;;;;;17.18;100.00;100193.20;1635608;88;21121;-80
2022/07/02 00:52:51;;;;;;;12.88;4.37;;;;;;;17.13;100.00;100184.80;1635290;88;21077;-81
2022/07/02 00:55:19;;;;;;;9.43;4.65;;;;;;;17.10;100.00;100195.30;1635544;88;21070;-80
2022/07/02 00:57:46;;;;;;;13.65;5.20;;;;;;;17.04;100.00;100192.89;1635536;88;21132;-82
2022/07/02 01:00:17;;;;;;;13.30;4.95;;;;;;;16.99;100.00;100196.24;1635816;88;21158;-82
2022/07/02 01:02:44;;;;;;;11.95;4.87;;;;;;;16.94;100.00;100206.13;1635599;88;21091;-82
2022/07/02 01:05:15;;;;;;;11.73;5.03;;;;;;;16.89;100.00;100210.33;1635786;88;21555;-81
2022/07/02 01:07:45;;;;;;;13.68;4.90;;;;;;;16.84;100.00;100217.47;1571326;91;21106;-80
2022/07/02 01:10:16;;;;;;;10.75;5.05;;;;;;;16.76;100.00;100215.72;1571211;90;21054;-82
2022/07/02 01:12:48;;;;;;;10.68;4.87;;;;;;;16.70;100.00;100223.39;1571425;91;21034;-81
2022/07/02 01:15:16;;;;;;;10.82;5.20;;;;;;;16.64;100.00;100231.89;1571173;91;21592;-81
2022/07/02 01:17:43;;;;;;;14.40;4.90;;;;;;;16.57;100.00;100232.91;1571755;91;21050;-84
2022/07/02 01:20:11;;;;;;;20.32;5.33;;;;;;;16.48;100.00;100235.84;1571166;91;21124;-83
2022/07/02 01:22:39;;;;;;;18.27;5.15;;;;;;;16.43;100.00;100238.84;1571375;91;21134;-83
2022/07/02 01:25:07;;;;;;;11.43;4.47;;;;;;;16.37;100.00;100248.69;1596565;89;21050;-81
2022/07/02 01:27:35;;;;;;;10.32;4.62;;;;;;;16.31;100.00;100250.88;1617881;89;21118;-82
2022/07/02 01:30:03;;;;;;;12.95;5.03;;;;;;;16.26;100.00;100254.20;1617976;89;21106;-82
2022/07/02 01:32:33;;;;;;;11.43;4.78;;;;;;;16.21;100.00;100271.70;1618056;89;21056;-80
2022/07/02 01:35:06;;;;;;;14.60;5.10;;;;;;;16.17;100.00;100275.89;1617229;87;21577;-83
2022/07/02 01:37:33;;;;;;;9.95;5.00;;;;;;;16.12;100.00;100272.92;1618015;89;21067;-83
2022/07/02 01:40:01;;;;;;;12.47;5.15;;;;;;;16.07;100.00;100283.59;1617897;88;21541;-83
2022/07/02 01:42:28;;;;;;;11.90;4.72;;;;;;;16.02;100.00;100288.27;1618182;88;21081;-82
2022/07/02 01:44:56;;;;;;;23.35;5.85;;;;;;;15.97;100.00;100283.97;1617859;89;21063;-81
2022/07/02 01:47:23;;;;;;;13.90;5.53;;;;;;;15.92;100.00;100287.82;1617373;88;21521;-80
2022/07/02 01:49:49;;;;;;;9.60;5.10;;;;;;;15.86;100.00;100281.78;1617473;88;21130;-80
2022/07/02 01:52:16;;;;;;;12.68;5.17;;;;;;;15.81;100.00;100287.86;1617523;89;21047;-80
2022/07/02 01:54:43;;;;;;;15.70;6.03;;;;;;;15.77;100.00;100289.27;1617501;88;21091;-80
2022/07/02 01:57:11;;;;;;;13.20;5.47;;;;;;;15.73;100.00;100289.33;1617462;89;21090;-81
2022/07/02 01:59:38;;;;;;;11.48;5.22;;;;;;;15.66;100.00;100297.45;1617719;89;21561;-83
2022/07/02 02:02:06;;;;;;;8.73;4.87;;;;;;;15.61;100.00;100297.20;1617654;89;21050;-82
2022/07/02 02:04:34;;;;;;;13.98;5.42;;;;;;;15.56;100.00;100296.45;1617793;88;21118;-82
2022/07/02 02:07:05;;;;;;;12.55;5.40;;;;;;;15.52;100.00;100292.94;1617825;88;21557;-83
2022/07/02 02:09:34;;;;;;;13.40;5.37;;;;;;;15.47;100.00;100291.33;1619965;85;21180;-81
2022/07/02 02:12:02;;;;;;;12.45;5.45;;;;;;;15.42;100.00;100303.33;1670372;83;21069;-80
2022/07/02 02:14:29;;;;;;;13.98;5.50;;;;;;;15.37;100.00;100310.22;1671485;86;21556;-81
2022/07/02 02:16:56;;;;;;;10.93;5.30;;;;;;;15.33;100.00;100310.80;1670660;86;21069;-83
2022/07/02 02:19:25;;;;;;;12.00;5.03;;;;;;;15.28;100.00;100311.40;1669754;86;21022;-81
2022/07/02 02:21:52;;;;;;;13.13;5.47;;;;;;;15.24;100.00;100317.42;1669863;86;20998;-81
2022/07/02 02:24:18;;;;;;;13.18;5.80;;;;;;;15.21;100.00;100324.61;1669947;86;21076;-79
2022/07/02 02:26:47;;;;;;;12.98;5.92;;;;;;;15.14;100.00;100324.05;1669652;86;21137;-81
2022/07/02 02:29:14;;;;;;;14.23;5.80;;;;;;;15.10;100.00;100335.50;1669523;86;21053;-81
2022/07/02 02:31:41;;;;;;;15.88;5.78;;;;;;;15.05;100.00;100334.74;1670000;86;21091;-81
2022/07/02 02:34:08;;;;;;;18.15;5.45;;;;;;;15.01;100.00;100336.14;1666767;84;20999;-80
2022/07/02 02:36:35;;;;;;;12.95;5.10;;;;;;;14.98;100.00;100340.11;1662763;86;21108;-84
2022/07/02 02:39:02;;;;;;;9.93;4.87;;;;;;;14.96;100.00;100341.31;1662813;86;21014;-79
2022/07/02 02:41:30;;;;;;;11.40;5.37;;;;;;;14.96;100.00;100350.84;1662520;85;21106;-81
2022/07/02 02:43:57;;;;;;;12.15;5.10;;;;;;;14.93;100.00;100349.37;1662862;86;21066;-81
2022/07/02 02:46:24;;;;;;;11.65;4.92;;;;;;;14.92;100.00;100361.81;1662995;85;21101;-80
2022/07/02 02:48:51;;;;;;;11.97;4.60;;;;;;;14.91;100.00;100362.83;1662876;86;21038;-80
2022/07/02 02:51:18;;;;;;;9.85;5.00;;;;;;;14.91;100.00;100365.06;1662879;86;21568;-81
2022/07/02 02:53:46;;;;;;;11.70;5.10;;;;;;;14.92;100.00;100367.25;1663001;86;21061;-81
2022/07/02 02:56:13;;;;;;;15.08;5.45;;;;;;;14.90;100.00;100372.05;1662848;86;21042;-79
2022/07/02 02:58:40;;;;;;;13.22;5.28;;;;;;;14.88;100.00;100372.23;1663097;86;21007;-80
2022/07/02 03:01:08;;;;;;;12.95;5.65;;;;;;;14.86;100.00;100370.76;1662764;86;21058;-80
2022/07/02 03:03:35;;;;;;;15.48;5.58;;;;;;;14.83;100.00;100374.69;1662850;86;21105;-80
2022/07/02 03:06:02;;;;;;;10.63;5.00;;;;;;;14.79;100.00;100379.67;1662816;86;21070;-82
2022/07/02 03:08:29;;;;;;;10.10;5.25;;;;;;;14.77;100.00;100374.94;1663010;86;21050;-81
2022/07/02 03:10:57;;;;;;;10.30;5.22;;;;;;;14.74;100.00;100382.11;1662719;86;21038;-79
2022/07/02 03:13:24;;;;;;;12.93;5.70;;;;;;;14.73;100.00;100386.38;1704391;83;21025;-80
2022/07/02 03:15:51;;;;;;;15.08;6.40;;;;;;;14.70;100.00;100390.34;1709024;84;21046;-81
2022/07/02 03:18:18;;;;;;;11.33;5.62;;;;;;;14.71;100.00;100393.37;1670399;86;21053;-79
2022/07/02 03:20:45;;;;;;;14.98;5.70;;;;;;;14.70;100.00;100396.31;1670297;86;21053;-81
2022/07/02 03:23:13;;;;;;;15.15;5.83;;;;;;;14.70;100.00;100401.75;1670342;86;21089;-82
2022/07/02 03:25:40;;;;;;;11.90;5.85;;;;;;;14.71;100.00;100401.54;1670451;86;21062;-82
2022/07/02 03:28:07;;;;;;;11.28;5.58;;;;;;;14.72;100.00;100400.52;1670568;85;21077;-82
2022/07/02 03:30:34;;;;;;;13.32;5.78;;;;;;;14.74;100.00;100401.70;1670337;85;21053;-81
2022/07/02 03:33:01;;;;;;;13.70;5.72;;;;;;;14.77;100.00;100404.05;1670446;86;21021;-82
2022/07/02 03:35:28;;;;;;;13.22;5.55;;;;;;;14.80;100.00;100399.06;1674689;84;21018;-82
2022/07/02 03:37:55;;;;;;;11.85;5.55;;;;;;;14.84;100.00;100410.42;1674718;86;21002;-82
2022/07/02 03:40:22;;;;;;;14.50;5.42;;;;;;;14.89;100.00;100408.47;1675001;84;21017;-82
2022/07/02 03:42:50;;;;;;;11.50;4.80;;;;;;;14.95;100.00;100406.36;1674806;84;21149;-81
2022/07/02 03:45:18;;;;;;;10.75;4.83;;;;;;;15.00;100.00;100402.55;1675052;86;21042;-83
2022/07/02 03:47:45;;;;;;;13.45;4.85;;;;;;;15.04;100.00;100412.02;1674742;86;21029;-81
2022/07/02 03:50:12;;;;;;;12.03;5.00;;;;;;;15.08;100.00;100405.14;1674858;86;21464;-81
2022/07/02 03:52:39;;;;;;;14.10;4.65;;;;;;;15.15;100.00;100408.78;1674987;86;21062;-82
2022/07/02 03:55:08;;;;;;;11.63;4.87;;;;;;;15.21;100.00;100416.73;1674918;84;21070;-82
2022/07/02 03:57:35;;;;;;;8.48;4.55;;;;;;;15.29;100.00;100422.04;1674492;85;21021;-81
2022/07/02 04:00:07;;;;;;;11.33;4.67;;;;;;;15.35;100.00;100429.45;1674917;85;21038;-82
2022/07/02 04:02:36;;;;;;;12.20;4.60;;;;;;;15.43;100.00;100426.28;1621307;88;21060;-82
2022/07/02 04:05:06;;;;;;;11.43;4.50;;;;;;;15.49;100.00;100429.09;1621116;88;21091;-81
2022/07/02 04:07:33;;;;;;;7.55;4.30;;;;;;;15.55;100.00;100439.20;1620920;89;21063;-82
2022/07/02 04:10:00;;;;;;;15.23;5.08;;;;;;;15.60;100.00;100444.08;1621455;88;21612;-81
2022/07/02 04:12:27;;;;;;;10.03;4.05;;;;;;;15.64;100.00;100445.36;1621460;88;21101;-83
2022/07/02 04:14:54;;;;;;;9.75;4.58;;;;;;;15.68;100.00;100443.09;1621324;88;21051;-83
2022/07/02 04:17:21;;;;;;;45.38;7.95;;;;;;;15.74;100.00;100437.75;1621277;88;21051;-81
2022/07/02 04:19:48;;;;;;;14.45;5.00;;;;;;;15.79;100.00;100431.69;1620955;88;21039;-82
2022/07/02 04:22:15;;;;;;;12.25;4.67;;;;;;;15.86;100.00;100428.50;1621192;89;21240;-82
2022/07/02 04:24:42;;;;;;;15.98;4.62;;;;;;;15.94;100.00;100427.53;1621315;87;21051;-83
2022/07/02 04:27:09;;;;;;;11.50;4.20;;;;;;;16.06;100.00;100430.55;1621205;88;21029;-82
2022/07/02 04:29:36;;;;;;;9.18;4.40;;;;;;;16.23;100.00;100440.13;1621193;88;21059;-82
2022/07/02 04:32:04;;;;;;;11.30;4.20;;;;;;;16.45;100.00;100437.34;1621440;88;21031;-82
2022/07/02 04:34:33;;;;;;;15.08;4.40;;;;;;;16.65;100.00;100432.86;1612639;87;21080;-83
2022/07/02 04:37:01;;;;;;;12.07;4.28;;;;;;;16.84;100.00;100447.70;1600852;90;21049;-83
2022/07/02 04:39:29;;;;;;;12.07;4.53;;;;;;;17.06;100.00;100435.29;1615694;86;21054;-81
2022/07/02 04:41:57;;;;;;;10.35;4.40;;;;;;;17.25;100.00;100445.98;1665409;86;21090;-82
2022/07/02 04:44:25;;;;;;;9.50;4.20;;;;;;;17.34;100.00;100454.84;1665260;86;21565;-82
2022/07/02 04:46:53;;;;;;;9.10;4.22;;;;;;;17.31;100.00;100453.87;1665364;86;21038;-80
2022/07/02 04:49:20;;;;;;;5.75;3.95;;;;;;;17.35;100.00;100460.11;1665083;86;21022;-81
2022/07/02 04:51:47;;;;;;;12.55;4.85;;;;;;;17.40;100.00;100460.84;1665028;86;21070;-82
2022/07/02 04:54:14;;;;;;;8.33;4.30;;;;;;;17.45;100.00;100456.43;1665107;86;21559;-82
2022/07/02 04:56:41;;;;;;;9.00;4.12;;;;;;;17.56;100.00;100456.88;1665203;86;21006;-82
2022/07/02 04:59:09;;;;;;;7.85;3.87;;;;;;;17.71;100.00;100456.72;1665383;86;21022;-83
2022/07/02 05:01:36;;;;;;;8.78;3.80;;;;;;;17.83;100.00;100461.89;1665356;86;20991;-82
2022/07/02 05:04:03;;;;;;;8.05;3.98;;;;;;;17.88;100.00;100462.65;1665302;86;21010;-81
2022/07/02 05:06:30;;;;;;;9.30;4.47;;;;;;;17.96;100.00;100466.56;1665259;86;21026;-81
2022/07/02 05:08:59;;;;;;;10.28;4.62;;;;;;;18.06;100.00;100461.52;1665353;86;21042;-81
2022/07/02 05:11:26;;;;;;;12.45;4.25;;;;;;;18.23;100.00;100455.62;1664843;86;21049;-76
2022/07/02 05:13:53;;;;;;;10.18;4.08;;;;;;;18.37;100.00;100456.75;1664017;86;21062;-74
2022/07/02 05:16:21;;;;;;;10.28;4.60;;;;;;;18.57;100.00;100454.51;1664372;85;21137;-75
2022/07/02 05:18:48;;;;;;;12.75;5.08;;;;;;;18.85;100.00;100467.96;1664181;86;21054;-77
2022/07/02 05:21:15;;;;;;;16.15;7.30;;;;;;;18.97;100.00;100462.12;1655191;86;21508;-80
2022/07/02 05:23:42;;;;;;;14.10;7.47;;;;;;;19.04;100.00;100461.28;1700291;84;21488;-81
2022/07/02 05:26:09;;;;;;;11.68;5.60;;;;;;;19.21;100.00;100461.11;1687302;83;20999;-80
2022/07/02 05:28:36;;;;;;;17.55;6.50;;;;;;;19.46;100.00;100460.32;1635247;86;21050;-78
2022/07/02 05:31:04;;;;;;;18.12;9.38;;;;;;;19.67;100.00;100464.13;1626857;87;21081;-78
2022/07/02 05:33:31;;;;;;;12.30;5.87;;;;;;;19.75;99.33;100463.58;1632348;87;21042;-77
2022/07/02 05:35:58;;;;;;;13.85;5.53;;;;;;;19.81;93.81;100462.67;1661478;85;21021;-79
2022/07/02 05:38:25;;;;;;;20.50;9.58;;;;;;;19.86;94.56;100467.80;1696887;84;21008;-82
2022/07/02 05:40:52;;;;;;;12.88;6.33;;;;;;;20.00;97.51;100463.60;1662515;84;21451;-81
2022/07/02 05:43:19;;;;;;;16.45;6.10;;;;;;;20.23;99.74;100454.75;1663182;86;21010;-79
2022/07/02 05:45:48;;;;;;;15.58;5.55;;;;;;;20.57;96.46;100463.52;1659799;86;21037;-80
2022/07/02 05:48:15;;;;;;;12.00;6.00;;;;;;;20.86;93.62;100454.56;1670913;85;21026;-81
2022/07/02 05:50:41;;;;;;;9.05;5.05;;;;;;;21.01;84.08;100451.97;1689249;85;21022;-82
2022/07/02 05:53:08;;;;;;;14.70;6.83;;;;;;;20.81;80.99;100454.95;1688504;85;21010;-80
2022/07/02 05:55:35;;;;;;;24.10;17.10;;;;;;;20.71;82.40;100454.09;1690320;85;21138;-81
2022/07/02 05:58:02;;;;;;;38.80;30.23;;;;;;;20.76;84.24;100447.93;1651926;86;21024;-80
2022/07/02 06:00:29;;;;;;;15.68;6.45;;;;;;;20.85;84.54;100443.25;1688537;85;21065;-80
2022/07/02 06:02:56;;;;;;;35.45;24.02;;;;;;;20.88;83.66;100446.09;1648541;87;20986;-79
2022/07/02 06:08:09;;;;;;;11.63;5.80;;;;;;;21.15;87.16;100447.14;1646474;87;21093;-76
2022/07/02 06:10:36;;;;;;;9.88;4.87;;;;;;;21.27;84.41;100448.05;1650152;86;21038;-80
2022/07/02 06:13:03;;;;;;;11.95;5.12;;;;;;;21.34;84.77;100443.84;1656246;86;21037;-78
2022/07/02 06:15:31;;;;;;;10.88;4.95;;;;;;;21.42;82.29;100450.37;1657471;86;21053;-78
2022/07/02 06:18:02;;;;;;;8.08;3.70;;;;;;;21.46;82.01;100453.02;1655235;86;21488;-79
2022/07/02 06:20:35;;;;;;;10.78;3.65;;;;;;;21.48;76.74;100454.13;1665303;85;21102;-82
2022/07/02 06:23:02;;;;;;;5.95;3.70;;;;;;;21.58;72.64;100448.39;1682632;85;21094;-76
2022/07/02 06:25:29;;;;;;;9.93;4.92;;;;;;;21.54;68.98;100441.66;1688906;84;21853;-77
2022/07/02 06:27:55;;;;;;;17.35;7.22;;;;;;;21.70;74.49;100442.91;1654278;86;21516;-80
2022/07/02 06:30:24;;;;;;;11.63;4.25;;;;;;;21.99;69.34;100434.31;1632260;86;21105;-84
2022/07/02 06:32:51;;;;;;;5.78;3.90;;;;;;;22.09;67.16;100435.08;1687299;85;21026;-86
2022/07/02 06:35:18;;;;;;;6.87;3.92;;;;;;;22.03;64.60;100436.05;1672492;83;21062;-82
2022/07/02 06:37:46;;;;;;;6.75;4.28;;;;;;;21.99;64.53;100437.06;1637408;86;21015;-85
2022/07/02 06:40:15;;;;;;;12.33;4.15;;;;;;;22.02;69.45;100435.73;1625832;87;21173;-84
2022/07/02 06:42:43;;;;;;;5.40;3.70;;;;;;;22.12;65.05;100434.62;1634317;88;21564;-86
2022/07/02 06:45:11;;;;;;;4.45;3.25;;;;;;;22.24;64.62;100431.88;1628239;87;21074;-84
2022/07/02 06:47:41;;;;;;;10.50;4.08;;;;;;;22.33;67.55;100433.23;1633777;87;21007;-83
2022/07/02 06:50:09;;;;;;;6.65;3.40;;;;;;;22.68;64.86;100417.22;1632891;88;21031;-81
2022/07/02 06:52:37;;;;;;;9.95;5.30;;;;;;;22.92;59.15;100422.12;1633563;88;21086;-81
2022/07/02 06:55:07;;;;;;;9.00;3.47;;;;;;;22.94;60.75;100430.16;1633043;88;21034;-84
2022/07/02 06:57:35;;;;;;;8.78;3.70;;;;;;;23.00;57.17;100429.72;1633008;87;21105;-83
2022/07/02 07:00:03;;;;;;;8.18;3.52;;;;;;;23.01;57.80;100426.72;1633187;87;21086;-85
2022/07/02 07:02:31;;;;;;;11.35;3.47;;;;;;;23.12;57.44;100430.55;1622719;88;21058;-80
2022/07/02 07:04:59;;;;;;;7.35;3.40;;;;;;;23.31;57.21;100427.90;1632374;88;21085;-84
2022/07/02 07:07:29;;;;;;;10.20;3.52;;;;;;;23.43;57.12;100429.24;1632639;88;21127;-79
2022/07/02 07:09:56;;;;;;;7.50;3.50;;;;;;;23.66;60.84;100430.22;1632308;87;21011;-80
2022/07/02 07:12:23;;;;;;;8.00;3.87;;;;;;;24.00;56.51;100431.66;1632038;88;21010;-79
2022/07/02 07:14:50;;;;;;;7.15;3.77;;;;;;;24.22;56.76;100427.58;1631023;88;21088;-81
2022/07/02 07:17:17;;;;;;;9.60;3.72;;;;;;;24.59;57.73;100428.44;1630530;88;21014;-80
2022/07/02 07:19:48;;;;;;;11.65;3.77;;;;;;;24.97;56.87;100415.69;1630871;88;21065;-85
2022/07/02 07:22:15;;;;;;;11.40;4.03;;;;;;;25.27;53.48;100428.22;1631350;88;21076;-83
2022/07/02 07:24:42;;;;;;;8.88;4.08;;;;;;;25.23;50.54;100426.48;1631998;87;21105;-85
2022/07/02 07:27:12;;;;;;;13.50;4.05;;;;;;;25.13;47.30;100418.09;1632669;87;21065;-87
2022/07/02 07:29:42;;;;;;;18.00;7.85;;;;;;;25.00;47.08;100416.53;1625901;87;21082;-86
2022/07/02 07:32:09;;;;;;;9.75;4.05;;;;;;;24.74;49.51;100421.75;1624037;85;21050;-80
2022/07/02 07:34:36;;;;;;;12.40;3.92;;;;;;;24.81;53.09;100414.09;1616649;87;21528;-78
2022/07/02 07:37:04;;;;;;;16.37;7.47;;;;;;;25.00;49.93;100413.77;1663164;85;21005;-76
2022/07/02 07:39:31;;;;;;;18.82;9.28;;;;;;;24.93;49.31;100411.22;1642542;86;21098;-80
2022/07/02 07:41:58;;;;;;;13.38;4.78;;;;;;;24.91;52.15;100411.16;1634134;87;21277;-79
2022/07/02 07:44:25;;;;;;;8.60;4.20;;;;;;;25.17;52.08;100417.84;1634976;87;20986;-82
2022/07/02 07:46:53;;;;;;;8.03;3.70;;;;;;;25.58;54.91;100412.78;1668152;85;21729;-77
2022/07/02 07:49:20;;;;;;;12.23;3.33;;;;;;;26.07;53.93;100416.84;1687552;84;20999;-77
2022/07/02 07:51:48;;;;;;;7.10;3.02;;;;;;;26.52;51.75;100424.35;1686509;85;21598;-82
2022/07/02 07:54:15;;;;;;;13.18;3.58;;;;;;;26.92;47.26;100410.45;1646337;87;21185;-85
2022/07/02 07:56:44;;;;;;;55.33;48.55;;;;;;;26.88;46.12;100419.05;1645487;86;21057;-79
2022/07/02 07:59:11;;;;;;;233.72;209.65;;;;;;;26.99;48.53;100415.20;1646129;86;21170;-80
2022/07/02 08:01:53;;;;;;;61.70;40.33;;;;;;;27.09;44.40;100414.39;1646176;87;21030;-83
2022/07/02 08:04:26;;;;;;;13.25;7.00;;;;;;;26.98;45.42;100423.80;1517762;94;21155;-80
2022/07/02 08:06:53;;;;;;;4.75;3.10;;;;;;;27.14;46.10;100424.13;1517815;93;21120;-81
2022/07/02 08:09:19;;;;;;;6.37;2.80;;;;;;;27.43;44.57;100416.20;1517530;94;21182;-76
2022/07/02 08:11:46;;;;;;;9.28;3.60;;;;;;;27.64;45.31;100424.55;1523417;93;21088;-79
2022/07/02 08:14:13;;;;;;;9.65;4.83;;;;;;;27.53;39.25;100429.25;1542616;93;21059;-79
2022/07/02 08:16:41;;;;;;;9.78;3.35;;;;;;;27.34;40.08;100433.65;1542401;93;21131;-77
2022/07/02 08:19:08;;;;;;;10.85;6.20;;;;;;;27.12;39.62;100424.13;1543099;91;21099;-83
2022/07/02 08:21:35;;;;;;;12.30;6.35;;;;;;;26.79;40.70;100428.44;1542625;93;21126;-78
2022/07/02 08:24:03;;;;;;;4.78;3.20;;;;;;;26.74;42.74;100428.94;1543586;93;21099;-78
2022/07/02 08:26:30;;;;;;;7.58;3.98;;;;;;;26.96;45.84;100427.39;1542928;93;21083;-78
2022/07/02 08:28:57;;;;;;;14.50;4.40;;;;;;;27.12;43.45;100430.50;1542839;92;21464;-78
2022/07/02 08:31:24;;;;;;;19.45;3.95;;;;;;;27.33;43.91;100424.50;1541949;93;21103;-82
2022/07/02 08:33:52;;;;;;;11.33;3.22;;;;;;;27.64;44.30;100424.02;1542990;93;21099;-79
2022/07/02 08:36:19;;;;;;;7.72;3.15;;;;;;;28.03;42.62;100425.47;1534992;92;21136;-79
2022/07/02 08:38:46;;;;;;;11.60;3.33;;;;;;;28.11;39.13;100426.84;1530060;94;21095;-80
2022/07/02 08:41:13;;;;;;;10.20;3.17;;;;;;;27.69;39.07;100422.34;1560839;85;21010;-82
2022/07/02 08:43:41;;;;;;;9.53;4.50;;;;;;;27.39;42.19;100430.89;1661493;86;21050;-80
2022/07/02 08:46:09;;;;;;;4.90;3.10;;;;;;;27.59;42.40;100419.02;1661151;85;21535;-80
2022/07/02 08:48:36;;;;;;;14.47;3.60;;;;;;;27.88;41.95;100423.47;1660388;86;21038;-79
2022/07/02 08:51:03;;;;;;;13.48;3.25;;;;;;;28.26;41.21;100425.45;1660846;85;21090;-76
2022/07/02 08:53:31;;;;;;;12.35;3.08;;;;;;;28.58;41.50;100424.30;1660628;86;21030;-80
2022/07/02 08:55:58;;;;;;;6.83;3.00;;;;;;;28.98;41.29;100422.48;1661127;86;21034;-80
2022/07/02 08:58:25;;;;;;;9.73;3.20;;;;;;;29.26;40.43;100418.20;1648788;86;21202;-80
2022/07/02 09:00:57;;;;;;;10.75;2.98;;;;;;;29.27;37.08;100418.48;1660522;86;21046;-84
2022/07/02 09:03:24;;;;;;;14.55;3.47;;;;;;;28.77;37.96;100433.70;1649843;86;21065;-80
2022/07/02 09:05:51;;;;;;;7.03;2.77;;;;;;;28.72;39.05;100427.30;1650017;86;21067;-82
2022/07/02 09:08:18;;;;;;;8.00;2.90;;;;;;;28.89;39.52;100437.55;1660970;86;21006;-85
2022/07/02 09:10:47;;;;;;;6.67;2.90;;;;;;;29.01;37.46;100429.45;1649496;86;21094;-79
2022/07/02 09:13:14;;;;;;;4.05;2.90;;;;;;;29.19;37.83;100432.17;1660650;86;21330;-79
2022/07/02 09:15:41;;;;;;;15.45;3.52;;;;;;;29.37;36.97;100421.75;1660961;86;21062;-78
2022/07/02 09:18:09;;;;;;;6.95;2.75;;;;;;;29.48;37.06;100434.52;1661081;86;21210;-78
2022/07/02 09:20:36;;;;;;;14.45;3.60;;;;;;;29.58;35.99;100433.61;1660499;86;21531;-77
2022/07/02 09:23:10;;;;;;;6.05;2.87;;;;;;;29.64;34.16;100432.47;1659829;86;21074;-77
2022/07/02 09:25:37;;;;;;;4.70;2.80;;;;;;;29.41;33.48;100422.02;1659618;86;21102;-77
2022/07/02 09:28:05;;;;;;;6.83;2.95;;;;;;;29.23;33.98;100428.52;1659143;86;21081;-76
2022/07/02 09:30:35;;;;;;;11.30;3.50;;;;;;;28.89;33.74;100434.76;1659588;86;21093;-78
2022/07/02 09:35:47;;;;;;;9.55;5.17;;;;;;;29.07;35.29;100429.11;1660322;86;21058;-84
2022/07/02 09:38:14;;;;;;;5.97;3.10;;;;;;;29.47;34.57;100416.70;1661768;85;21200;-78
2022/07/02 09:40:55;;;;;;;9.50;5.08;;;;;;;29.51;35.41;100422.77;1662911;86;21006;-79
2022/07/02 09:43:28;;;;;;;8.45;3.00;;;;;;;29.37;34.02;100414.80;1662646;84;21082;-76
2022/07/02 09:45:58;;;;;;;21.27;4.15;;;;;;;29.26;35.37;100415.41;1624995;88;21052;-78
2022/07/02 09:48:26;;;;;;;12.85;3.08;;;;;;;29.40;36.82;100412.01;1586752;90;21067;-84
2022/07/02 09:50:53;;;;;;;9.70;2.90;;;;;;;29.71;36.52;100419.04;1587380;90;20997;-78
2022/07/02 09:53:20;;;;;;;7.35;2.87;;;;;;;30.10;36.54;100408.43;1586916;90;21033;-80
2022/07/02 09:55:49;;;;;;;4.00;2.75;;;;;;;30.44;36.87;100412.32;1587082;90;21064;-81
2022/07/02 09:58:28;;;;;;;16.37;4.40;;;;;;;30.79;37.09;100401.31;1586761;90;21113;-76
2022/07/02 10:00:57;;;;;;;23.57;9.75;;;;;;;31.13;37.00;100396.16;1572433;90;22250;-79
2022/07/02 10:03:37;;;;;;;8.20;3.10;;;;;;;31.13;35.04;100396.70;1562538;92;21210;-84
2022/07/02 10:06:07;;;;;;;6.55;3.20;;;;;;;31.18;36.05;100400.83;1562450;89;21186;-77
2022/07/02 10:08:37;;;;;;;28.30;4.60;;;;;;;31.34;35.49;100392.52;1562622;91;21066;-74
2022/07/02 10:11:15;;;;;;;6.90;2.90;;;;;;;31.38;34.79;100392.73;1561964;92;21062;-75
2022/07/02 10:13:43;;;;;;;10.30;3.15;;;;;;;31.19;33.69;100393.55;1586117;90;21029;-77
2022/07/02 10:16:17;;;;;;;10.70;3.27;;;;;;;30.84;35.46;100394.82;1585927;90;21062;-77
2022/07/02 10:18:44;;;;;;;53.25;6.55;;;;;;;30.97;36.11;100392.74;1585447;90;21164;-77
2022/07/02 10:21:14;;;;;;;12.55;3.12;;;;;;;31.15;34.99;100394.47;1585522;90;21127;-78
2022/07/02 10:23:43;;;;;;;5.60;2.83;;;;;;;31.17;33.59;100397.78;1585653;90;21114;-77
2022/07/02 10:26:11;;;;;;;5.70;2.65;;;;;;;30.70;34.19;100401.69;1583782;90;21559;-75
2022/07/02 10:28:38;;;;;;;18.85;4.17;;;;;;;30.63;35.74;100396.48;1586497;90;21085;-76
2022/07/02 10:31:12;;;;;;;9.78;3.42;;;;;;;30.85;35.53;100407.09;1586728;90;21077;-77
2022/07/02 10:34:22;;;;;;;20.62;4.15;;;;;;;31.10;35.35;100396.75;1589807;88;21176;-75
2022/07/02 10:36:49;;;;;;;10.68;3.05;;;;;;;31.33;34.49;100388.05;1586744;88;21040;-76
2022/07/02 10:39:16;;;;;;;9.00;3.12;;;;;;;31.42;33.35;100388.20;1586557;90;21536;-76
2022/07/02 10:41:43;;;;;;;9.53;3.20;;;;;;;31.48;33.76;100395.92;1589668;88;21045;-76
2022/07/02 10:44:10;;;;;;;14.73;7.83;;;;;;;31.58;32.88;100393.83;1620082;85;21041;-76
2022/07/02 10:46:39;;;;;;;7.35;3.30;;;;;;;31.12;31.74;100399.25;1659356;86;21054;-77
2022/07/02 10:49:06;;;;;;;8.48;2.80;;;;;;;30.87;33.53;100394.80;1659818;85;21058;-76
2022/07/02 10:51:35;;;;;;;54.33;47.25;;;;;;;31.00;33.83;100396.87;1626645;86;21342;-78
2022/07/02 10:54:07;;;;;;;61.98;9.80;;;;;;;31.11;34.46;100389.19;1660108;85;21018;-75
2022/07/02 10:56:49;;;;;;;79.87;71.35;;;;;;;31.27;33.47;100395.39;1659946;86;21106;-75
2022/07/02 10:59:30;;;;;;;19.98;15.48;;;;;;;31.41;33.53;100387.92;1664767;86;21068;-77
2022/07/02 11:02:05;;;;;;;12.63;4.47;;;;;;;31.67;34.81;100389.78;1664843;86;21690;-73
2022/07/02 11:04:32;;;;;;;6.35;2.60;;;;;;;31.99;34.57;100379.17;1664693;86;21510;-79
2022/07/02 11:07:11;;;;;;;6.95;2.85;;;;;;;32.16;32.83;100382.83;1664730;86;21569;-75
2022/07/02 11:09:50;;;;;;;29.42;23.65;;;;;;;32.12;33.33;100376.20;1665080;86;21020;-80
2022/07/02 11:12:22;;;;;;;13.85;7.37;;;;;;;32.24;34.72;100381.85;1663254;86;21036;-77
2022/07/02 11:14:56;;;;;;;9.68;3.52;;;;;;;32.43;35.01;100376.19;1665144;86;21510;-77
2022/07/02 11:17:26;;;;;;;7.05;2.85;;;;;;;32.47;33.15;100378.61;1664228;86;21028;-80
2022/07/02 11:19:54;;;;;;;14.95;9.35;;;;;;;32.39;33.69;100375.13;1664272;86;21545;-79
2022/07/02 11:22:21;;;;;;;24.23;8.05;;;;;;;32.43;33.94;100369.19;1664540;86;21037;-77
2022/07/02 11:24:49;;;;;;;14.18;3.72;;;;;;;32.48;33.14;100373.28;1664482;86;21052;-78
2022/07/02 11:27:16;;;;;;;6.42;2.83;;;;;;;32.38;32.43;100374.88;1664494;86;21041;-75